sensor_id;sensor_type;location;lat;lon;timestamp;P1;durP1;ratioP1;P2;durP2;ratioP2
64395;SDS011;50717;53.360;6.290;2022-07-05T00:02:01;6.57;;;4.57;;
64395;SDS011;50717;53.360;6.290;2022-07-05T00:06:53;10.18;;;5.28;;
64395;SDS011;50717;53.360;6.290;2022-07-05T00:09:37;10.63;;;5.05;;
64395;SDS011;50717;53.360;6.290;2022-07-05T00:12:03;8.27;;;4.90;;
64395;SDS011;50717;53.360;6.290;2022-07-05T00:14:29;7.57;;;5.25;;
64395;SDS011;50717;53.360;6.290;2022-07-05T00:16:55;8.63;;;5.47;;
64395;SDS011;50717;53.360;6.290;2022-07-05T00:19:21;8.75;;;5.07;;
64395;SDS011;50717;53.360;6.290;2022-07-05T00:24:12;10.10;;;5.15;;
64395;SDS011;50717;53.360;6.290;2022-07-05T00:26:38;5.53;;;4.80;;
64395;SDS011;50717;53.360;6.290;2022-07-05T00:29:04;10.10;;;5.15;;
64395;SDS011;50717;53.360;6.290;2022-07-05T00:31:30;7.10;;;5.03;;
64395;SDS011;50717;53.360;6.290;2022-07-05T00:36:21;10.30;;;5.10;;
64395;SDS011;50717;53.360;6.290;2022-07-05T00:38:46;5.53;;;4.53;;
64395;SDS011;50717;53.360;6.290;2022-07-05T00:41:12;10.70;;;4.88;;
64395;SDS011;50717;53.360;6.290;2022-07-05T00:43:50;8.30;;;4.88;;
64395;SDS011;50717;53.360;6.290;2022-07-05T00:46:19;8.23;;;5.50;;
64395;SDS011;50717;53.360;6.290;2022-07-05T00:48:45;5.95;;;4.90;;
64395;SDS011;50717;53.360;6.290;2022-07-05T00:51:11;6.72;;;5.00;;
64395;SDS011;50717;53.360;6.290;2022-07-05T00:56:03;7.15;;;4.90;;
64395;SDS011;50717;53.360;6.290;2022-07-05T00:58:29;8.63;;;5.35;;
64395;SDS011;50717;53.360;6.290;2022-07-05T01:00:58;7.95;;;4.90;;
64395;SDS011;50717;53.360;6.290;2022-07-05T01:03:26;7.70;;;5.72;;
64395;SDS011;50717;53.360;6.290;2022-07-05T01:05:52;6.75;;;5.15;;
64395;SDS011;50717;53.360;6.290;2022-07-05T01:08:19;5.75;;;5.10;;
64395;SDS011;50717;53.360;6.290;2022-07-05T01:10:46;6.30;;;5.30;;
64395;SDS011;50717;53.360;6.290;2022-07-05T01:13:12;8.18;;;5.55;;
64395;SDS011;50717;53.360;6.290;2022-07-05T01:15:39;6.90;;;5.43;;
64395;SDS011;50717;53.360;6.290;2022-07-05T01:18:05;9.80;;;5.97;;
64395;SDS011;50717;53.360;6.290;2022-07-05T01:20:32;8.55;;;6.32;;
64395;SDS011;50717;53.360;6.290;2022-07-05T01:22:58;5.95;;;5.13;;
64395;SDS011;50717;53.360;6.290;2022-07-05T01:25:27;6.70;;;5.30;;
64395;SDS011;50717;53.360;6.290;2022-07-05T01:27:55;8.93;;;5.82;;
64395;SDS011;50717;53.360;6.290;2022-07-05T01:30:22;8.77;;;5.68;;
64395;SDS011;50717;53.360;6.290;2022-07-05T01:32:49;7.10;;;5.55;;
64395;SDS011;50717;53.360;6.290;2022-07-05T01:35:16;7.63;;;5.88;;
64395;SDS011;50717;53.360;6.290;2022-07-05T01:37:49;7.43;;;5.63;;
64395;SDS011;50717;53.360;6.290;2022-07-05T01:40:16;9.85;;;6.53;;
64395;SDS011;50717;53.360;6.290;2022-07-05T01:42:42;7.07;;;5.85;;
64395;SDS011;50717;53.360;6.290;2022-07-05T01:45:08;6.95;;;5.40;;
64395;SDS011;50717;53.360;6.290;2022-07-05T01:47:35;8.50;;;6.07;;
64395;SDS011;50717;53.360;6.290;2022-07-05T01:50:02;7.35;;;6.10;;
64395;SDS011;50717;53.360;6.290;2022-07-05T01:52:31;9.88;;;6.15;;
64395;SDS011;50717;53.360;6.290;2022-07-05T01:54:58;13.73;;;6.55;;
64395;SDS011;50717;53.360;6.290;2022-07-05T01:57:26;8.25;;;6.30;;
64395;SDS011;50717;53.360;6.290;2022-07-05T01:59:52;10.25;;;6.65;;
64395;SDS011;50717;53.360;6.290;2022-07-05T02:02:17;12.90;;;6.40;;
64395;SDS011;50717;53.360;6.290;2022-07-05T02:04:43;9.73;;;6.65;;
64395;SDS011;50717;53.360;6.290;2022-07-05T02:07:09;8.10;;;6.70;;
64395;SDS011;50717;53.360;6.290;2022-07-05T02:12:01;7.88;;;5.90;;
64395;SDS011;50717;53.360;6.290;2022-07-05T02:14:29;9.02;;;6.13;;
64395;SDS011;50717;53.360;6.290;2022-07-05T02:16:54;9.73;;;6.82;;
64395;SDS011;50717;53.360;6.290;2022-07-05T02:19:20;7.80;;;6.10;;
64395;SDS011;50717;53.360;6.290;2022-07-05T02:21:46;12.05;;;7.25;;
64395;SDS011;50717;53.360;6.290;2022-07-05T02:24:12;7.18;;;6.47;;
64395;SDS011;50717;53.360;6.290;2022-07-05T02:26:37;9.23;;;7.28;;
64395;SDS011;50717;53.360;6.290;2022-07-05T02:29:03;11.00;;;7.55;;
64395;SDS011;50717;53.360;6.290;2022-07-05T02:31:30;12.65;;;7.40;;
64395;SDS011;50717;53.360;6.290;2022-07-05T02:33:56;15.90;;;7.78;;
64395;SDS011;50717;53.360;6.290;2022-07-05T02:36:22;11.85;;;7.40;;
64395;SDS011;50717;53.360;6.290;2022-07-05T02:38:47;11.85;;;7.70;;
64395;SDS011;50717;53.360;6.290;2022-07-05T02:41:13;11.05;;;7.57;;
64395;SDS011;50717;53.360;6.290;2022-07-05T02:43:39;10.52;;;6.95;;
64395;SDS011;50717;53.360;6.290;2022-07-05T02:48:31;10.15;;;7.03;;
64395;SDS011;50717;53.360;6.290;2022-07-05T02:50:58;9.55;;;6.55;;
64395;SDS011;50717;53.360;6.290;2022-07-05T02:53:24;8.65;;;7.20;;
64395;SDS011;50717;53.360;6.290;2022-07-05T02:55:49;7.45;;;6.70;;
64395;SDS011;50717;53.360;6.290;2022-07-05T02:58:15;11.90;;;7.32;;
64395;SDS011;50717;53.360;6.290;2022-07-05T03:03:08;10.53;;;7.43;;
64395;SDS011;50717;53.360;6.290;2022-07-05T03:05:34;10.38;;;7.22;;
64395;SDS011;50717;53.360;6.290;2022-07-05T03:10:26;8.48;;;7.22;;
64395;SDS011;50717;53.360;6.290;2022-07-05T03:12:51;11.75;;;7.68;;
64395;SDS011;50717;53.360;6.290;2022-07-05T03:15:17;8.93;;;7.07;;
64395;SDS011;50717;53.360;6.290;2022-07-05T03:17:43;12.57;;;7.95;;
64395;SDS011;50717;53.360;6.290;2022-07-05T03:20:09;12.85;;;7.93;;
64395;SDS011;50717;53.360;6.290;2022-07-05T03:22:35;11.82;;;7.55;;
64395;SDS011;50717;53.360;6.290;2022-07-05T03:25:00;12.27;;;8.00;;
64395;SDS011;50717;53.360;6.290;2022-07-05T03:27:27;9.25;;;8.10;;
64395;SDS011;50717;53.360;6.290;2022-07-05T03:29:53;12.05;;;8.27;;
64395;SDS011;50717;53.360;6.290;2022-07-05T03:32:19;12.10;;;8.10;;
64395;SDS011;50717;53.360;6.290;2022-07-05T03:34:44;11.55;;;7.82;;
64395;SDS011;50717;53.360;6.290;2022-07-05T03:37:10;12.70;;;9.10;;
64395;SDS011;50717;53.360;6.290;2022-07-05T03:39:36;11.48;;;7.97;;
64395;SDS011;50717;53.360;6.290;2022-07-05T03:42:01;12.20;;;8.07;;
64395;SDS011;50717;53.360;6.290;2022-07-05T03:44:27;9.43;;;7.90;;
64395;SDS011;50717;53.360;6.290;2022-07-05T03:46:53;10.20;;;7.80;;
64395;SDS011;50717;53.360;6.290;2022-07-05T03:49:19;11.35;;;8.38;;
64395;SDS011;50717;53.360;6.290;2022-07-05T03:51:44;12.50;;;8.68;;
64395;SDS011;50717;53.360;6.290;2022-07-05T03:54:10;12.90;;;8.25;;
64395;SDS011;50717;53.360;6.290;2022-07-05T03:56:36;11.07;;;7.72;;
64395;SDS011;50717;53.360;6.290;2022-07-05T03:59:01;9.50;;;7.80;;
64395;SDS011;50717;53.360;6.290;2022-07-05T04:01:27;9.35;;;7.82;;
64395;SDS011;50717;53.360;6.290;2022-07-05T04:03:53;9.88;;;8.15;;
64395;SDS011;50717;53.360;6.290;2022-07-05T04:06:18;11.82;;;7.78;;
64395;SDS011;50717;53.360;6.290;2022-07-05T04:08:44;11.77;;;7.88;;
64395;SDS011;50717;53.360;6.290;2022-07-05T04:11:09;12.07;;;8.00;;
64395;SDS011;50717;53.360;6.290;2022-07-05T04:13:38;8.20;;;7.40;;
64395;SDS011;50717;53.360;6.290;2022-07-05T04:16:05;9.52;;;7.78;;
64395;SDS011;50717;53.360;6.290;2022-07-05T04:18:30;9.90;;;8.13;;
64395;SDS011;50717;53.360;6.290;2022-07-05T04:20:56;13.60;;;8.32;;
64395;SDS011;50717;53.360;6.290;2022-07-05T04:23:22;12.50;;;7.65;;
64395;SDS011;50717;53.360;6.290;2022-07-05T04:25:47;11.30;;;7.78;;
64395;SDS011;50717;53.360;6.290;2022-07-05T04:28:13;9.80;;;7.28;;
64395;SDS011;50717;53.360;6.290;2022-07-05T04:30:39;12.32;;;8.52;;
64395;SDS011;50717;53.360;6.290;2022-07-05T04:33:04;8.63;;;7.72;;
64395;SDS011;50717;53.360;6.290;2022-07-05T04:35:30;10.88;;;7.47;;
64395;SDS011;50717;53.360;6.290;2022-07-05T04:37:56;10.05;;;7.07;;
64395;SDS011;50717;53.360;6.290;2022-07-05T04:40:21;11.23;;;7.43;;
64395;SDS011;50717;53.360;6.290;2022-07-05T04:42:47;8.85;;;6.78;;
64395;SDS011;50717;53.360;6.290;2022-07-05T04:45:13;10.55;;;7.25;;
64395;SDS011;50717;53.360;6.290;2022-07-05T04:47:38;13.55;;;7.55;;
64395;SDS011;50717;53.360;6.290;2022-07-05T04:50:04;13.55;;;6.82;;
64395;SDS011;50717;53.360;6.290;2022-07-05T04:52:31;12.40;;;6.80;;
64395;SDS011;50717;53.360;6.290;2022-07-05T04:54:56;12.50;;;6.68;;
64395;SDS011;50717;53.360;6.290;2022-07-05T04:57:22;10.68;;;5.90;;
64395;SDS011;50717;53.360;6.290;2022-07-05T04:59:48;7.78;;;5.25;;
64395;SDS011;50717;53.360;6.290;2022-07-05T05:02:13;7.05;;;5.68;;
64395;SDS011;50717;53.360;6.290;2022-07-05T05:04:40;7.10;;;5.15;;
64395;SDS011;50717;53.360;6.290;2022-07-05T05:07:06;7.00;;;4.95;;
64395;SDS011;50717;53.360;6.290;2022-07-05T05:09:31;7.60;;;4.97;;
64395;SDS011;50717;53.360;6.290;2022-07-05T05:11:57;8.48;;;4.80;;
64395;SDS011;50717;53.360;6.290;2022-07-05T05:14:23;10.38;;;4.13;;
64395;SDS011;50717;53.360;6.290;2022-07-05T05:16:49;11.32;;;4.05;;
64395;SDS011;50717;53.360;6.290;2022-07-05T05:19:14;7.20;;;4.50;;
64395;SDS011;50717;53.360;6.290;2022-07-05T05:24:06;9.27;;;3.38;;
64395;SDS011;50717;53.360;6.290;2022-07-05T05:28:57;5.85;;;3.30;;
64395;SDS011;50717;53.360;6.290;2022-07-05T05:31:23;6.75;;;2.70;;
64395;SDS011;50717;53.360;6.290;2022-07-05T05:33:49;11.82;;;2.95;;
64395;SDS011;50717;53.360;6.290;2022-07-05T05:36:14;7.10;;;3.20;;
64395;SDS011;50717;53.360;6.290;2022-07-05T05:41:06;4.70;;;2.88;;
64395;SDS011;50717;53.360;6.290;2022-07-05T05:45:58;8.05;;;2.45;;
64395;SDS011;50717;53.360;6.290;2022-07-05T05:48:24;7.70;;;2.38;;
64395;SDS011;50717;53.360;6.290;2022-07-05T05:50:49;10.60;;;2.22;;
64395;SDS011;50717;53.360;6.290;2022-07-05T05:53:16;5.28;;;2.15;;
64395;SDS011;50717;53.360;6.290;2022-07-05T05:55:42;9.25;;;3.03;;
64395;SDS011;50717;53.360;6.290;2022-07-05T06:00:38;10.85;;;2.95;;
64395;SDS011;50717;53.360;6.290;2022-07-05T06:03:03;10.77;;;2.20;;
64395;SDS011;50717;53.360;6.290;2022-07-05T06:07:55;10.38;;;2.20;;
64395;SDS011;50717;53.360;6.290;2022-07-05T06:10:23;6.75;;;1.70;;
64395;SDS011;50717;53.360;6.290;2022-07-05T06:12:57;7.57;;;1.80;;
64395;SDS011;50717;53.360;6.290;2022-07-05T06:15:25;5.75;;;1.67;;
64395;SDS011;50717;53.360;6.290;2022-07-05T06:17:50;12.20;;;2.45;;
64395;SDS011;50717;53.360;6.290;2022-07-05T06:20:17;9.75;;;2.03;;
64395;SDS011;50717;53.360;6.290;2022-07-05T06:22:45;10.52;;;2.22;;
64395;SDS011;50717;53.360;6.290;2022-07-05T06:27:40;4.75;;;1.50;;
64395;SDS011;50717;53.360;6.290;2022-07-05T06:30:07;10.75;;;2.05;;
64395;SDS011;50717;53.360;6.290;2022-07-05T06:32:33;7.10;;;2.25;;
64395;SDS011;50717;53.360;6.290;2022-07-05T06:37:25;4.53;;;1.65;;
64395;SDS011;50717;53.360;6.290;2022-07-05T06:42:16;11.23;;;2.38;;
64395;SDS011;50717;53.360;6.290;2022-07-05T06:47:08;9.50;;;1.90;;
64395;SDS011;50717;53.360;6.290;2022-07-05T06:49:34;6.35;;;1.50;;
64395;SDS011;50717;53.360;6.290;2022-07-05T06:54:26;9.55;;;2.00;;
64395;SDS011;50717;53.360;6.290;2022-07-05T06:59:20;6.05;;;1.50;;
64395;SDS011;50717;53.360;6.290;2022-07-05T07:01:46;12.57;;;2.00;;
64395;SDS011;50717;53.360;6.290;2022-07-05T07:06:38;6.25;;;1.58;;
64395;SDS011;50717;53.360;6.290;2022-07-05T07:11:45;5.15;;;1.48;;
64395;SDS011;50717;53.360;6.290;2022-07-05T07:14:11;8.73;;;1.75;;
64395;SDS011;50717;53.360;6.290;2022-07-05T07:16:37;4.38;;;1.35;;
64395;SDS011;50717;53.360;6.290;2022-07-05T07:19:03;6.22;;;1.33;;
64395;SDS011;50717;53.360;6.290;2022-07-05T07:21:28;4.25;;;1.20;;
64395;SDS011;50717;53.360;6.290;2022-07-05T07:23:54;6.95;;;1.63;;
64395;SDS011;50717;53.360;6.290;2022-07-05T07:28:45;4.43;;;1.15;;
64395;SDS011;50717;53.360;6.290;2022-07-05T07:31:11;8.20;;;1.80;;
64395;SDS011;50717;53.360;6.290;2022-07-05T07:36:02;7.25;;;1.30;;
64395;SDS011;50717;53.360;6.290;2022-07-05T07:38:28;8.45;;;1.60;;
64395;SDS011;50717;53.360;6.290;2022-07-05T07:40:54;8.57;;;1.98;;
64395;SDS011;50717;53.360;6.290;2022-07-05T07:43:21;5.63;;;1.20;;
64395;SDS011;50717;53.360;6.290;2022-07-05T07:45:47;9.10;;;2.45;;
64395;SDS011;50717;53.360;6.290;2022-07-05T07:48:13;9.05;;;1.50;;
64395;SDS011;50717;53.360;6.290;2022-07-05T07:50:39;5.22;;;1.25;;
64395;SDS011;50717;53.360;6.290;2022-07-05T07:53:05;6.25;;;1.10;;
64395;SDS011;50717;53.360;6.290;2022-07-05T07:55:30;4.60;;;1.20;;
64395;SDS011;50717;53.360;6.290;2022-07-05T07:57:56;4.90;;;1.25;;
64395;SDS011;50717;53.360;6.290;2022-07-05T08:00:21;6.53;;;1.40;;
64395;SDS011;50717;53.360;6.290;2022-07-05T08:02:47;9.35;;;1.80;;
64395;SDS011;50717;53.360;6.290;2022-07-05T08:05:13;3.60;;;1.15;;
64395;SDS011;50717;53.360;6.290;2022-07-05T08:07:39;3.17;;;1.05;;
64395;SDS011;50717;53.360;6.290;2022-07-05T08:10:04;4.25;;;1.30;;
64395;SDS011;50717;53.360;6.290;2022-07-05T08:12:31;5.35;;;1.38;;
64395;SDS011;50717;53.360;6.290;2022-07-05T08:17:22;4.57;;;1.45;;
64395;SDS011;50717;53.360;6.290;2022-07-05T08:22:32;5.53;;;1.40;;
64395;SDS011;50717;53.360;6.290;2022-07-05T08:24:58;4.57;;;1.50;;
64395;SDS011;50717;53.360;6.290;2022-07-05T08:27:24;5.63;;;1.30;;
64395;SDS011;50717;53.360;6.290;2022-07-05T08:29:49;5.50;;;1.20;;
64395;SDS011;50717;53.360;6.290;2022-07-05T08:32:16;6.00;;;1.10;;
64395;SDS011;50717;53.360;6.290;2022-07-05T08:34:42;9.43;;;1.77;;
64395;SDS011;50717;53.360;6.290;2022-07-05T08:37:08;4.00;;;1.27;;
64395;SDS011;50717;53.360;6.290;2022-07-05T08:39:34;4.25;;;1.20;;
64395;SDS011;50717;53.360;6.290;2022-07-05T08:42:00;5.35;;;1.20;;
64395;SDS011;50717;53.360;6.290;2022-07-05T08:44:27;5.22;;;1.60;;
64395;SDS011;50717;53.360;6.290;2022-07-05T08:46:55;3.92;;;1.35;;
64395;SDS011;50717;53.360;6.290;2022-07-05T08:49:23;6.75;;;1.88;;
64395;SDS011;50717;53.360;6.290;2022-07-05T08:51:50;6.97;;;1.30;;
64395;SDS011;50717;53.360;6.290;2022-07-05T08:54:17;4.22;;;1.15;;
64395;SDS011;50717;53.360;6.290;2022-07-05T08:56:44;5.95;;;1.20;;
64395;SDS011;50717;53.360;6.290;2022-07-05T08:59:09;5.45;;;1.30;;
64395;SDS011;50717;53.360;6.290;2022-07-05T09:01:35;4.07;;;1.15;;
64395;SDS011;50717;53.360;6.290;2022-07-05T09:04:05;6.95;;;1.38;;
64395;SDS011;50717;53.360;6.290;2022-07-05T09:06:34;2.60;;;1.08;;
64395;SDS011;50717;53.360;6.290;2022-07-05T09:09:02;6.82;;;1.20;;
64395;SDS011;50717;53.360;6.290;2022-07-05T09:11:31;4.80;;;1.17;;
64395;SDS011;50717;53.360;6.290;2022-07-05T09:14:02;5.45;;;1.15;;
64395;SDS011;50717;53.360;6.290;2022-07-05T09:16:30;6.88;;;1.10;;
64395;SDS011;50717;53.360;6.290;2022-07-05T09:19:03;4.22;;;1.27;;
64395;SDS011;50717;53.360;6.290;2022-07-05T09:21:31;6.63;;;1.20;;
64395;SDS011;50717;53.360;6.290;2022-07-05T09:24:00;5.60;;;1.85;;
64395;SDS011;50717;53.360;6.290;2022-07-05T09:26:34;7.90;;;2.47;;
64395;SDS011;50717;53.360;6.290;2022-07-05T09:29:05;9.18;;;1.70;;
64395;SDS011;50717;53.360;6.290;2022-07-05T09:31:36;3.13;;;0.93;;
64395;SDS011;50717;53.360;6.290;2022-07-05T09:34:08;2.72;;;1.02;;
64395;SDS011;50717;53.360;6.290;2022-07-05T09:42:14;4.70;;;1.10;;
64395;SDS011;50717;53.360;6.290;2022-07-05T09:44:46;5.47;;;1.48;;
64395;SDS011;50717;53.360;6.290;2022-07-05T09:47:14;5.28;;;1.35;;
64395;SDS011;50717;53.360;6.290;2022-07-05T09:49:44;6.40;;;1.17;;
64395;SDS011;50717;53.360;6.290;2022-07-05T09:52:32;3.90;;;1.60;;
64395;SDS011;50717;53.360;6.290;2022-07-05T09:55:15;7.45;;;1.73;;
64395;SDS011;50717;53.360;6.290;2022-07-05T09:57:43;7.65;;;1.33;;
64395;SDS011;50717;53.360;6.290;2022-07-05T10:02:47;14.05;;;1.90;;
64395;SDS011;50717;53.360;6.290;2022-07-05T10:05:15;3.13;;;1.40;;
64395;SDS011;50717;53.360;6.290;2022-07-05T10:07:45;5.75;;;1.50;;
64395;SDS011;50717;53.360;6.290;2022-07-05T10:10:17;3.20;;;1.20;;
64395;SDS011;50717;53.360;6.290;2022-07-05T10:12:44;4.38;;;2.08;;
64395;SDS011;50717;53.360;6.290;2022-07-05T10:15:13;7.10;;;1.42;;
64395;SDS011;50717;53.360;6.290;2022-07-05T10:17:42;3.65;;;1.40;;
64395;SDS011;50717;53.360;6.290;2022-07-05T10:20:25;5.22;;;1.42;;
64395;SDS011;50717;53.360;6.290;2022-07-05T10:22:57;6.25;;;1.40;;
64395;SDS011;50717;53.360;6.290;2022-07-05T10:25:26;7.45;;;1.55;;
64395;SDS011;50717;53.360;6.290;2022-07-05T10:27:53;3.00;;;1.00;;
64395;SDS011;50717;53.360;6.290;2022-07-05T10:30:19;6.22;;;1.10;;
64395;SDS011;50717;53.360;6.290;2022-07-05T10:32:49;7.20;;;1.27;;
64395;SDS011;50717;53.360;6.290;2022-07-05T10:35:18;6.78;;;1.35;;
64395;SDS011;50717;53.360;6.290;2022-07-05T10:37:44;7.45;;;1.63;;
64395;SDS011;50717;53.360;6.290;2022-07-05T10:40:12;3.97;;;1.58;;
64395;SDS011;50717;53.360;6.290;2022-07-05T10:42:42;4.55;;;1.35;;
64395;SDS011;50717;53.360;6.290;2022-07-05T10:50:45;3.10;;;1.20;;
64395;SDS011;50717;53.360;6.290;2022-07-05T10:55:52;5.00;;;1.33;;
64395;SDS011;50717;53.360;6.290;2022-07-05T10:58:21;5.40;;;1.15;;
64395;SDS011;50717;53.360;6.290;2022-07-05T11:03:37;3.78;;;1.10;;
64395;SDS011;50717;53.360;6.290;2022-07-05T11:06:23;6.55;;;1.60;;
64395;SDS011;50717;53.360;6.290;2022-07-05T11:11:33;7.07;;;1.35;;
64395;SDS011;50717;53.360;6.290;2022-07-05T11:14:03;6.05;;;1.63;;
64395;SDS011;50717;53.360;6.290;2022-07-05T11:16:32;5.20;;;1.50;;
64395;SDS011;50717;53.360;6.290;2022-07-05T11:21:31;7.20;;;1.55;;
64395;SDS011;50717;53.360;6.290;2022-07-05T11:27:11;2.78;;;1.20;;
64395;SDS011;50717;53.360;6.290;2022-07-05T11:29:43;4.63;;;1.30;;
64395;SDS011;50717;53.360;6.290;2022-07-05T11:32:18;4.85;;;1.45;;
64395;SDS011;50717;53.360;6.290;2022-07-05T11:34:49;4.47;;;1.48;;
64395;SDS011;50717;53.360;6.290;2022-07-05T11:39:44;6.47;;;1.75;;
64395;SDS011;50717;53.360;6.290;2022-07-05T11:42:19;3.30;;;1.40;;
64395;SDS011;50717;53.360;6.290;2022-07-05T11:44:49;2.75;;;1.00;;
64395;SDS011;50717;53.360;6.290;2022-07-05T11:47:18;5.32;;;1.30;;
64395;SDS011;50717;53.360;6.290;2022-07-05T11:49:54;2.22;;;1.00;;
64395;SDS011;50717;53.360;6.290;2022-07-05T11:52:27;2.75;;;0.90;;
64395;SDS011;50717;53.360;6.290;2022-07-05T11:54:54;4.05;;;1.23;;
64395;SDS011;50717;53.360;6.290;2022-07-05T11:57:20;4.55;;;1.15;;
64395;SDS011;50717;53.360;6.290;2022-07-05T11:59:46;9.98;;;2.55;;
64395;SDS011;50717;53.360;6.290;2022-07-05T12:02:12;3.80;;;1.10;;
64395;SDS011;50717;53.360;6.290;2022-07-05T12:04:38;3.58;;;1.25;;
64395;SDS011;50717;53.360;6.290;2022-07-05T12:07:04;2.63;;;0.95;;
64395;SDS011;50717;53.360;6.290;2022-07-05T12:09:31;3.55;;;1.40;;
64395;SDS011;50717;53.360;6.290;2022-07-05T12:12:33;4.82;;;1.20;;
64395;SDS011;50717;53.360;6.290;2022-07-05T12:15:08;3.75;;;1.10;;
64395;SDS011;50717;53.360;6.290;2022-07-05T12:17:36;1.98;;;1.20;;
64395;SDS011;50717;53.360;6.290;2022-07-05T12:20:06;4.47;;;1.15;;
64395;SDS011;50717;53.360;6.290;2022-07-05T12:22:35;2.90;;;1.20;;
64395;SDS011;50717;53.360;6.290;2022-07-05T12:25:03;6.18;;;1.75;;
64395;SDS011;50717;53.360;6.290;2022-07-05T12:27:31;4.43;;;1.80;;
64395;SDS011;50717;53.360;6.290;2022-07-05T12:29:58;5.40;;;1.40;;
64395;SDS011;50717;53.360;6.290;2022-07-05T12:32:27;3.03;;;1.15;;
64395;SDS011;50717;53.360;6.290;2022-07-05T12:34:54;8.20;;;1.50;;
64395;SDS011;50717;53.360;6.290;2022-07-05T12:37:25;5.05;;;1.42;;
64395;SDS011;50717;53.360;6.290;2022-07-05T12:40:06;4.35;;;1.40;;
64395;SDS011;50717;53.360;6.290;2022-07-05T12:42:33;6.00;;;1.63;;
64395;SDS011;50717;53.360;6.290;2022-07-05T12:45:13;3.72;;;1.20;;
64395;SDS011;50717;53.360;6.290;2022-07-05T12:50:23;4.13;;;1.27;;
64395;SDS011;50717;53.360;6.290;2022-07-05T12:53:09;5.35;;;1.33;;
64395;SDS011;50717;53.360;6.290;2022-07-05T12:56:01;5.45;;;1.27;;
64395;SDS011;50717;53.360;6.290;2022-07-05T12:58:51;3.97;;;1.10;;
64395;SDS011;50717;53.360;6.290;2022-07-05T13:01:24;7.15;;;1.48;;
64395;SDS011;50717;53.360;6.290;2022-07-05T13:07:21;3.33;;;1.45;;
64395;SDS011;50717;53.360;6.290;2022-07-05T13:14:43;5.72;;;1.50;;
64395;SDS011;50717;53.360;6.290;2022-07-05T13:17:13;3.60;;;1.10;;
64395;SDS011;50717;53.360;6.290;2022-07-05T13:19:41;5.85;;;1.35;;
64395;SDS011;50717;53.360;6.290;2022-07-05T13:22:08;4.30;;;1.52;;
64395;SDS011;50717;53.360;6.290;2022-07-05T13:24:35;3.92;;;1.10;;
64395;SDS011;50717;53.360;6.290;2022-07-05T13:27:02;4.28;;;1.10;;
64395;SDS011;50717;53.360;6.290;2022-07-05T13:29:28;3.58;;;1.00;;
64395;SDS011;50717;53.360;6.290;2022-07-05T13:31:54;4.63;;;1.50;;
64395;SDS011;50717;53.360;6.290;2022-07-05T13:34:20;5.60;;;1.52;;
64395;SDS011;50717;53.360;6.290;2022-07-05T13:36:51;7.28;;;1.63;;
64395;SDS011;50717;53.360;6.290;2022-07-05T13:39:18;3.17;;;1.30;;
64395;SDS011;50717;53.360;6.290;2022-07-05T13:41:44;4.45;;;1.33;;
64395;SDS011;50717;53.360;6.290;2022-07-05T13:44:12;4.25;;;1.40;;
64395;SDS011;50717;53.360;6.290;2022-07-05T13:46:37;4.60;;;1.48;;
64395;SDS011;50717;53.360;6.290;2022-07-05T13:49:03;3.47;;;1.52;;
64395;SDS011;50717;53.360;6.290;2022-07-05T13:51:28;4.38;;;0.95;;
64395;SDS011;50717;53.360;6.290;2022-07-05T13:53:54;4.28;;;1.50;;
64395;SDS011;50717;53.360;6.290;2022-07-05T13:56:20;4.32;;;1.20;;
64395;SDS011;50717;53.360;6.290;2022-07-05T13:58:46;4.50;;;1.00;;
64395;SDS011;50717;53.360;6.290;2022-07-05T14:01:12;3.88;;;1.13;;
64395;SDS011;50717;53.360;6.290;2022-07-05T14:03:38;4.03;;;1.30;;
64395;SDS011;50717;53.360;6.290;2022-07-05T14:06:03;3.85;;;1.20;;
64395;SDS011;50717;53.360;6.290;2022-07-05T14:08:29;3.95;;;1.33;;
64395;SDS011;50717;53.360;6.290;2022-07-05T14:10:55;4.05;;;1.00;;
64395;SDS011;50717;53.360;6.290;2022-07-05T14:13:22;4.95;;;1.13;;
64395;SDS011;50717;53.360;6.290;2022-07-05T14:15:50;3.13;;;1.30;;
64395;SDS011;50717;53.360;6.290;2022-07-05T14:18:16;5.40;;;1.20;;
64395;SDS011;50717;53.360;6.290;2022-07-05T14:20:43;3.03;;;0.95;;
64395;SDS011;50717;53.360;6.290;2022-07-05T14:23:12;4.13;;;1.20;;
64395;SDS011;50717;53.360;6.290;2022-07-05T14:25:40;4.65;;;1.30;;
64395;SDS011;50717;53.360;6.290;2022-07-05T14:28:06;7.28;;;1.25;;
64395;SDS011;50717;53.360;6.290;2022-07-05T14:30:35;3.08;;;1.23;;
64395;SDS011;50717;53.360;6.290;2022-07-05T14:33:03;4.15;;;1.20;;
64395;SDS011;50717;53.360;6.290;2022-07-05T14:35:29;5.63;;;0.95;;
64395;SDS011;50717;53.360;6.290;2022-07-05T14:37:55;4.20;;;1.30;;
64395;SDS011;50717;53.360;6.290;2022-07-05T14:40:22;3.60;;;1.02;;
64395;SDS011;50717;53.360;6.290;2022-07-05T14:42:53;7.47;;;1.38;;
64395;SDS011;50717;53.360;6.290;2022-07-05T14:45:19;5.63;;;1.08;;
64395;SDS011;50717;53.360;6.290;2022-07-05T14:47:46;5.55;;;1.20;;
64395;SDS011;50717;53.360;6.290;2022-07-05T14:50:12;8.07;;;1.10;;
64395;SDS011;50717;53.360;6.290;2022-07-05T14:52:39;5.45;;;1.10;;
64395;SDS011;50717;53.360;6.290;2022-07-05T14:55:05;5.22;;;1.20;;
64395;SDS011;50717;53.360;6.290;2022-07-05T14:57:31;6.15;;;1.20;;
64395;SDS011;50717;53.360;6.290;2022-07-05T14:59:57;4.53;;;1.20;;
64395;SDS011;50717;53.360;6.290;2022-07-05T15:02:23;4.63;;;1.50;;
64395;SDS011;50717;53.360;6.290;2022-07-05T15:04:48;1.48;;;0.90;;
64395;SDS011;50717;53.360;6.290;2022-07-05T15:07:14;4.60;;;1.02;;
64395;SDS011;50717;53.360;6.290;2022-07-05T15:09:41;3.97;;;1.13;;
64395;SDS011;50717;53.360;6.290;2022-07-05T15:12:06;5.10;;;1.20;;
64395;SDS011;50717;53.360;6.290;2022-07-05T15:14:32;4.25;;;1.10;;
64395;SDS011;50717;53.360;6.290;2022-07-05T15:16:58;6.55;;;1.35;;
64395;SDS011;50717;53.360;6.290;2022-07-05T15:19:24;3.58;;;1.00;;
64395;SDS011;50717;53.360;6.290;2022-07-05T15:21:50;6.50;;;1.48;;
64395;SDS011;50717;53.360;6.290;2022-07-05T15:24:15;5.72;;;1.25;;
64395;SDS011;50717;53.360;6.290;2022-07-05T15:26:42;10.93;;;1.42;;
64395;SDS011;50717;53.360;6.290;2022-07-05T15:29:09;4.07;;;1.05;;
64395;SDS011;50717;53.360;6.290;2022-07-05T15:31:35;3.70;;;1.27;;
64395;SDS011;50717;53.360;6.290;2022-07-05T15:34:02;8.05;;;1.10;;
64395;SDS011;50717;53.360;6.290;2022-07-05T15:36:29;3.28;;;1.00;;
64395;SDS011;50717;53.360;6.290;2022-07-05T15:38:59;3.95;;;1.25;;
64395;SDS011;50717;53.360;6.290;2022-07-05T15:41:26;3.38;;;1.10;;
64395;SDS011;50717;53.360;6.290;2022-07-05T15:43:53;4.95;;;1.40;;
64395;SDS011;50717;53.360;6.290;2022-07-05T15:46:18;4.13;;;1.02;;
64395;SDS011;50717;53.360;6.290;2022-07-05T15:48:44;7.15;;;1.20;;
64395;SDS011;50717;53.360;6.290;2022-07-05T15:51:10;1.77;;;1.00;;
64395;SDS011;50717;53.360;6.290;2022-07-05T15:53:38;8.90;;;1.38;;
64395;SDS011;50717;53.360;6.290;2022-07-05T15:56:04;4.57;;;1.30;;
64395;SDS011;50717;53.360;6.290;2022-07-05T15:58:30;5.80;;;1.20;;
64395;SDS011;50717;53.360;6.290;2022-07-05T16:00:57;6.65;;;1.85;;
64395;SDS011;50717;53.360;6.290;2022-07-05T16:03:27;2.90;;;0.98;;
64395;SDS011;50717;53.360;6.290;2022-07-05T16:05:53;3.78;;;1.30;;
64395;SDS011;50717;53.360;6.290;2022-07-05T16:08:24;2.03;;;1.17;;
64395;SDS011;50717;53.360;6.290;2022-07-05T16:10:51;2.22;;;0.80;;
64395;SDS011;50717;53.360;6.290;2022-07-05T16:13:17;5.45;;;1.00;;
64395;SDS011;50717;53.360;6.290;2022-07-05T16:15:44;3.50;;;0.90;;
64395;SDS011;50717;53.360;6.290;2022-07-05T16:18:28;4.03;;;1.23;;
64395;SDS011;50717;53.360;6.290;2022-07-05T16:20:54;3.90;;;1.00;;
64395;SDS011;50717;53.360;6.290;2022-07-05T16:23:25;3.92;;;1.00;;
64395;SDS011;50717;53.360;6.290;2022-07-05T16:25:52;5.10;;;1.10;;
64395;SDS011;50717;53.360;6.290;2022-07-05T16:28:18;3.28;;;0.80;;
64395;SDS011;50717;53.360;6.290;2022-07-05T16:30:45;2.58;;;0.77;;
64395;SDS011;50717;53.360;6.290;2022-07-05T16:33:11;3.78;;;1.23;;